sensor_id;sensor_type;location;lat;lon;timestamp;P1;durP1;ratioP1;P2;durP2;ratioP2
4521;SDS011;2273;48.464;11.926;2023-05-29T00:00:45;14.60;;;7.97;;
4521;SDS011;2273;48.464;11.926;2023-05-29T00:03:11;13.50;;;7.53;;
4521;SDS011;2273;48.464;11.926;2023-05-29T00:05:37;11.63;;;6.73;;
4521;SDS011;2273;48.464;11.926;2023-05-29T00:08:04;20.57;;;8.17;;
4521;SDS011;2273;48.464;11.926;2023-05-29T00:10:29;11.70;;;7.63;;
4521;SDS011;2273;48.464;11.926;2023-05-29T00:12:56;13.43;;;7.93;;
4521;SDS011;2273;48.464;11.926;2023-05-29T00:15:22;14.10;;;8.80;;
4521;SDS011;2273;48.464;11.926;2023-05-29T00:17:48;13.37;;;7.90;;
4521;SDS011;2273;48.464;11.926;2023-05-29T00:20:14;11.47;;;6.93;;
4521;SDS011;2273;48.464;11.926;2023-05-29T00:22:39;11.80;;;7.13;;
4521;SDS011;2273;48.464;11.926;2023-05-29T00:25:05;13.33;;;7.67;;
4521;SDS011;2273;48.464;11.926;2023-05-29T00:27:32;15.37;;;7.00;;
4521;SDS011;2273;48.464;11.926;2023-05-29T00:29:58;11.67;;;6.67;;
4521;SDS011;2273;48.464;11.926;2023-05-29T00:32:24;14.20;;;8.20;;
4521;SDS011;2273;48.464;11.926;2023-05-29T00:34:50;15.37;;;7.53;;
4521;SDS011;2273;48.464;11.926;2023-05-29T00:37:16;13.63;;;8.23;;
4521;SDS011;2273;48.464;11.926;2023-05-29T00:39:42;11.57;;;6.70;;
4521;SDS011;2273;48.464;11.926;2023-05-29T00:42:08;13.40;;;7.27;;
4521;SDS011;2273;48.464;11.926;2023-05-29T00:44:33;12.73;;;7.83;;
4521;SDS011;2273;48.464;11.926;2023-05-29T00:47:00;14.50;;;8.33;;
4521;SDS011;2273;48.464;11.926;2023-05-29T00:49:26;15.77;;;7.33;;
4521;SDS011;2273;48.464;11.926;2023-05-29T00:51:52;19.10;;;7.87;;
4521;SDS011;2273;48.464;11.926;2023-05-29T00:54:20;16.93;;;8.43;;
4521;SDS011;2273;48.464;11.926;2023-05-29T00:56:47;12.50;;;7.40;;
4521;SDS011;2273;48.464;11.926;2023-05-29T00:59:12;14.00;;;7.80;;
4521;SDS011;2273;48.464;11.926;2023-05-29T01:01:38;15.83;;;7.23;;
4521;SDS011;2273;48.464;11.926;2023-05-29T01:04:05;11.23;;;7.20;;
4521;SDS011;2273;48.464;11.926;2023-05-29T01:06:34;11.63;;;7.80;;
4521;SDS011;2273;48.464;11.926;2023-05-29T01:09:00;13.90;;;8.23;;
4521;SDS011;2273;48.464;11.926;2023-05-29T01:14:14;13.27;;;7.10;;
4521;SDS011;2273;48.464;11.926;2023-05-29T01:16:50;13.70;;;6.40;;
4521;SDS011;2273;48.464;11.926;2023-05-29T01:28:21;14.60;;;7.97;;
4521;SDS011;2273;48.464;11.926;2023-05-29T01:30:49;11.93;;;7.50;;
4521;SDS011;2273;48.464;11.926;2023-05-29T01:33:15;15.77;;;7.97;;
4521;SDS011;2273;48.464;11.926;2023-05-29T01:35:41;12.67;;;8.20;;
4521;SDS011;2273;48.464;11.926;2023-05-29T01:38:06;12.57;;;7.90;;
4521;SDS011;2273;48.464;11.926;2023-05-29T01:40:32;14.07;;;7.90;;
4521;SDS011;2273;48.464;11.926;2023-05-29T01:42:57;14.53;;;7.87;;
4521;SDS011;2273;48.464;11.926;2023-05-29T01:45:23;12.20;;;8.27;;
4521;SDS011;2273;48.464;11.926;2023-05-29T01:47:48;12.80;;;7.67;;
4521;SDS011;2273;48.464;11.926;2023-05-29T01:50:14;12.60;;;7.57;;
4521;SDS011;2273;48.464;11.926;2023-05-29T01:52:40;12.00;;;7.83;;
4521;SDS011;2273;48.464;11.926;2023-05-29T01:55:06;16.63;;;9.43;;
4521;SDS011;2273;48.464;11.926;2023-05-29T01:57:32;13.50;;;8.30;;
4521;SDS011;2273;48.464;11.926;2023-05-29T01:59:57;17.77;;;8.87;;
4521;SDS011;2273;48.464;11.926;2023-05-29T02:02:23;13.83;;;8.57;;
4521;SDS011;2273;48.464;11.926;2023-05-29T02:04:48;14.53;;;7.73;;
4521;SDS011;2273;48.464;11.926;2023-05-29T02:07:14;14.53;;;8.60;;
4521;SDS011;2273;48.464;11.926;2023-05-29T02:09:40;14.40;;;8.50;;
4521;SDS011;2273;48.464;11.926;2023-05-29T02:12:06;15.60;;;8.77;;
4521;SDS011;2273;48.464;11.926;2023-05-29T02:14:32;11.40;;;7.43;;
4521;SDS011;2273;48.464;11.926;2023-05-29T02:16:58;15.90;;;8.47;;
4521;SDS011;2273;48.464;11.926;2023-05-29T02:19:26;13.83;;;8.80;;
4521;SDS011;2273;48.464;11.926;2023-05-29T02:21:52;18.80;;;8.83;;
4521;SDS011;2273;48.464;11.926;2023-05-29T02:24:18;14.37;;;8.03;;
4521;SDS011;2273;48.464;11.926;2023-05-29T02:26:43;15.50;;;8.97;;
4521;SDS011;2273;48.464;11.926;2023-05-29T02:29:09;15.10;;;8.83;;
4521;SDS011;2273;48.464;11.926;2023-05-29T02:31:36;15.33;;;9.10;;
4521;SDS011;2273;48.464;11.926;2023-05-29T02:34:03;12.60;;;8.13;;
4521;SDS011;2273;48.464;11.926;2023-05-29T02:36:29;14.10;;;8.90;;
4521;SDS011;2273;48.464;11.926;2023-05-29T02:38:56;13.40;;;8.13;;
4521;SDS011;2273;48.464;11.926;2023-05-29T02:41:22;14.70;;;8.07;;
4521;SDS011;2273;48.464;11.926;2023-05-29T02:43:49;16.73;;;8.60;;
4521;SDS011;2273;48.464;11.926;2023-05-29T02:46:15;14.63;;;8.07;;
4521;SDS011;2273;48.464;11.926;2023-05-29T02:48:40;14.73;;;8.10;;
4521;SDS011;2273;48.464;11.926;2023-05-29T02:51:06;19.93;;;8.63;;
4521;SDS011;2273;48.464;11.926;2023-05-29T02:53:31;14.40;;;8.07;;
4521;SDS011;2273;48.464;11.926;2023-05-29T02:55:57;13.83;;;8.20;;
4521;SDS011;2273;48.464;11.926;2023-05-29T02:58:22;17.20;;;8.07;;
4521;SDS011;2273;48.464;11.926;2023-05-29T03:00:48;11.53;;;7.47;;
4521;SDS011;2273;48.464;11.926;2023-05-29T03:03:15;16.87;;;8.03;;
4521;SDS011;2273;48.464;11.926;2023-05-29T03:05:40;11.40;;;7.60;;
4521;SDS011;2273;48.464;11.926;2023-05-29T03:08:06;12.20;;;8.23;;
4521;SDS011;2273;48.464;11.926;2023-05-29T03:10:31;12.90;;;8.50;;
4521;SDS011;2273;48.464;11.926;2023-05-29T03:12:57;14.30;;;8.57;;
4521;SDS011;2273;48.464;11.926;2023-05-29T03:15:22;12.40;;;7.43;;
4521;SDS011;2273;48.464;11.926;2023-05-29T03:17:48;12.27;;;7.40;;
4521;SDS011;2273;48.464;11.926;2023-05-29T03:20:16;17.23;;;9.10;;
4521;SDS011;2273;48.464;11.926;2023-05-29T03:22:42;12.57;;;8.07;;
4521;SDS011;2273;48.464;11.926;2023-05-29T03:25:08;14.03;;;7.90;;
4521;SDS011;2273;48.464;11.926;2023-05-29T03:27:34;14.87;;;8.63;;
4521;SDS011;2273;48.464;11.926;2023-05-29T03:30:09;15.03;;;8.63;;
4521;SDS011;2273;48.464;11.926;2023-05-29T03:32:36;16.00;;;7.83;;
4521;SDS011;2273;48.464;11.926;2023-05-29T03:35:02;13.30;;;8.27;;
4521;SDS011;2273;48.464;11.926;2023-05-29T03:37:29;14.93;;;8.17;;
4521;SDS011;2273;48.464;11.926;2023-05-29T03:39:55;12.23;;;7.53;;
4521;SDS011;2273;48.464;11.926;2023-05-29T03:42:21;14.53;;;8.10;;
4521;SDS011;2273;48.464;11.926;2023-05-29T03:44:49;12.80;;;8.03;;
4521;SDS011;2273;48.464;11.926;2023-05-29T03:47:14;14.50;;;8.30;;
4521;SDS011;2273;48.464;11.926;2023-05-29T03:49:40;16.53;;;7.70;;
4521;SDS011;2273;48.464;11.926;2023-05-29T03:52:05;13.30;;;8.20;;
4521;SDS011;2273;48.464;11.926;2023-05-29T03:54:32;12.43;;;7.50;;
4521;SDS011;2273;48.464;11.926;2023-05-29T03:57:00;13.57;;;8.20;;
4521;SDS011;2273;48.464;11.926;2023-05-29T03:59:26;19.20;;;8.77;;
4521;SDS011;2273;48.464;11.926;2023-05-29T04:01:52;17.27;;;8.43;;
4521;SDS011;2273;48.464;11.926;2023-05-29T04:04:19;14.37;;;8.23;;
4521;SDS011;2273;48.464;11.926;2023-05-29T04:06:44;13.50;;;7.70;;
4521;SDS011;2273;48.464;11.926;2023-05-29T04:09:10;15.13;;;8.03;;
4521;SDS011;2273;48.464;11.926;2023-05-29T04:11:36;14.37;;;8.17;;
4521;SDS011;2273;48.464;11.926;2023-05-29T04:14:03;12.40;;;8.00;;
4521;SDS011;2273;48.464;11.926;2023-05-29T04:16:29;15.07;;;8.00;;
4521;SDS011;2273;48.464;11.926;2023-05-29T04:18:54;14.10;;;8.60;;
4521;SDS011;2273;48.464;11.926;2023-05-29T04:21:22;20.93;;;8.77;;
4521;SDS011;2273;48.464;11.926;2023-05-29T04:23:48;12.90;;;8.50;;
4521;SDS011;2273;48.464;11.926;2023-05-29T04:26:14;11.00;;;7.17;;
4521;SDS011;2273;48.464;11.926;2023-05-29T04:28:39;12.20;;;7.97;;
4521;SDS011;2273;48.464;11.926;2023-05-29T04:31:05;13.60;;;7.67;;
4521;SDS011;2273;48.464;11.926;2023-05-29T04:33:31;12.63;;;8.07;;
4521;SDS011;2273;48.464;11.926;2023-05-29T04:35:58;16.50;;;7.77;;
4521;SDS011;2273;48.464;11.926;2023-05-29T04:38:26;14.57;;;7.30;;
4521;SDS011;2273;48.464;11.926;2023-05-29T04:40:53;14.30;;;7.90;;
4521;SDS011;2273;48.464;11.926;2023-05-29T04:43:23;13.47;;;7.23;;
4521;SDS011;2273;48.464;11.926;2023-05-29T04:46:09;14.27;;;8.13;;
4521;SDS011;2273;48.464;11.926;2023-05-29T04:48:38;12.00;;;7.67;;
4521;SDS011;2273;48.464;11.926;2023-05-29T04:51:06;16.80;;;8.70;;
4521;SDS011;2273;48.464;11.926;2023-05-29T04:53:33;13.57;;;7.97;;
4521;SDS011;2273;48.464;11.926;2023-05-29T04:55:59;13.37;;;8.40;;
4521;SDS011;2273;48.464;11.926;2023-05-29T04:58:25;12.47;;;7.53;;
4521;SDS011;2273;48.464;11.926;2023-05-29T05:00:51;15.83;;;8.00;;
4521;SDS011;2273;48.464;11.926;2023-05-29T05:03:16;11.60;;;7.83;;
4521;SDS011;2273;48.464;11.926;2023-05-29T05:05:42;12.53;;;8.27;;
4521;SDS011;2273;48.464;11.926;2023-05-29T05:08:11;13.90;;;8.63;;
4521;SDS011;2273;48.464;11.926;2023-05-29T05:10:37;15.27;;;8.10;;
4521;SDS011;2273;48.464;11.926;2023-05-29T05:13:03;16.90;;;9.30;;
4521;SDS011;2273;48.464;11.926;2023-05-29T05:15:28;13.63;;;8.07;;
4521;SDS011;2273;48.464;11.926;2023-05-29T05:17:54;15.83;;;8.43;;
4521;SDS011;2273;48.464;11.926;2023-05-29T05:20:19;17.73;;;9.30;;
4521;SDS011;2273;48.464;11.926;2023-05-29T05:22:51;13.50;;;9.27;;
4521;SDS011;2273;48.464;11.926;2023-05-29T05:25:16;14.70;;;8.10;;
4521;SDS011;2273;48.464;11.926;2023-05-29T05:27:44;13.57;;;8.47;;
4521;SDS011;2273;48.464;11.926;2023-05-29T05:30:10;13.93;;;8.33;;
4521;SDS011;2273;48.464;11.926;2023-05-29T05:32:41;17.03;;;8.83;;
4521;SDS011;2273;48.464;11.926;2023-05-29T05:35:06;13.03;;;7.77;;
4521;SDS011;2273;48.464;11.926;2023-05-29T05:37:33;16.53;;;7.60;;
4521;SDS011;2273;48.464;11.926;2023-05-29T05:39:59;17.77;;;8.23;;
4521;SDS011;2273;48.464;11.926;2023-05-29T05:42:25;14.23;;;7.03;;
4521;SDS011;2273;48.464;11.926;2023-05-29T05:44:58;15.33;;;8.20;;
4521;SDS011;2273;48.464;11.926;2023-05-29T05:47:23;14.57;;;7.30;;
4521;SDS011;2273;48.464;11.926;2023-05-29T05:49:49;13.23;;;6.70;;
4521;SDS011;2273;48.464;11.926;2023-05-29T05:52:16;11.10;;;6.23;;
4521;SDS011;2273;48.464;11.926;2023-05-29T05:54:43;12.23;;;6.33;;
4521;SDS011;2273;48.464;11.926;2023-05-29T05:57:08;11.00;;;6.37;;
4521;SDS011;2273;48.464;11.926;2023-05-29T05:59:36;13.90;;;6.00;;
4521;SDS011;2273;48.464;11.926;2023-05-29T06:02:03;11.57;;;6.93;;
4521;SDS011;2273;48.464;11.926;2023-05-29T06:04:29;11.27;;;6.00;;
4521;SDS011;2273;48.464;11.926;2023-05-29T06:06:55;9.70;;;6.23;;
4521;SDS011;2273;48.464;11.926;2023-05-29T06:09:21;13.80;;;6.93;;
4521;SDS011;2273;48.464;11.926;2023-05-29T06:11:47;10.00;;;6.00;;
4521;SDS011;2273;48.464;11.926;2023-05-29T06:14:14;11.23;;;6.73;;
4521;SDS011;2273;48.464;11.926;2023-05-29T06:16:42;9.90;;;5.87;;
4521;SDS011;2273;48.464;11.926;2023-05-29T06:19:08;13.20;;;6.60;;
4521;SDS011;2273;48.464;11.926;2023-05-29T06:21:48;12.20;;;5.83;;
4521;SDS011;2273;48.464;11.926;2023-05-29T06:24:14;14.77;;;6.17;;
4521;SDS011;2273;48.464;11.926;2023-05-29T06:26:40;12.07;;;6.00;;
4521;SDS011;2273;48.464;11.926;2023-05-29T06:29:07;15.00;;;6.77;;
4521;SDS011;2273;48.464;11.926;2023-05-29T06:31:33;11.07;;;5.70;;
4521;SDS011;2273;48.464;11.926;2023-05-29T06:33:59;10.83;;;5.40;;
4521;SDS011;2273;48.464;11.926;2023-05-29T06:36:24;10.60;;;5.50;;
4521;SDS011;2273;48.464;11.926;2023-05-29T06:38:50;9.70;;;5.40;;
4521;SDS011;2273;48.464;11.926;2023-05-29T06:41:17;10.33;;;5.30;;
4521;SDS011;2273;48.464;11.926;2023-05-29T06:43:42;10.63;;;5.30;;
4521;SDS011;2273;48.464;11.926;2023-05-29T06:46:08;9.33;;;5.43;;
4521;SDS011;2273;48.464;11.926;2023-05-29T06:48:34;9.00;;;5.10;;
4521;SDS011;2273;48.464;11.926;2023-05-29T06:51:00;7.80;;;5.50;;
4521;SDS011;2273;48.464;11.926;2023-05-29T06:53:55;8.77;;;4.40;;
4521;SDS011;2273;48.464;11.926;2023-05-29T06:56:22;11.83;;;5.00;;
4521;SDS011;2273;48.464;11.926;2023-05-29T06:58:48;8.37;;;5.33;;
4521;SDS011;2273;48.464;11.926;2023-05-29T07:01:14;8.93;;;5.20;;
4521;SDS011;2273;48.464;11.926;2023-05-29T07:03:51;8.23;;;5.00;;
4521;SDS011;2273;48.464;11.926;2023-05-29T07:06:17;9.80;;;4.90;;
4521;SDS011;2273;48.464;11.926;2023-05-29T07:08:43;10.30;;;5.67;;
4521;SDS011;2273;48.464;11.926;2023-05-29T07:11:08;10.60;;;5.67;;
4521;SDS011;2273;48.464;11.926;2023-05-29T07:13:34;11.33;;;5.83;;
4521;SDS011;2273;48.464;11.926;2023-05-29T07:16:00;15.87;;;5.33;;
4521;SDS011;2273;48.464;11.926;2023-05-29T07:18:31;7.83;;;4.77;;
4521;SDS011;2273;48.464;11.926;2023-05-29T07:20:59;8.57;;;5.13;;
4521;SDS011;2273;48.464;11.926;2023-05-29T07:23:26;13.73;;;5.47;;
4521;SDS011;2273;48.464;11.926;2023-05-29T07:25:52;8.33;;;5.47;;
4521;SDS011;2273;48.464;11.926;2023-05-29T07:28:18;9.77;;;5.17;;
4521;SDS011;2273;48.464;11.926;2023-05-29T07:30:43;8.90;;;5.10;;
4521;SDS011;2273;48.464;11.926;2023-05-29T07:33:09;9.77;;;5.40;;
4521;SDS011;2273;48.464;11.926;2023-05-29T07:35:35;9.50;;;5.23;;
4521;SDS011;2273;48.464;11.926;2023-05-29T07:38:03;10.10;;;5.10;;
4521;SDS011;2273;48.464;11.926;2023-05-29T07:40:28;9.37;;;5.10;;
4521;SDS011;2273;48.464;11.926;2023-05-29T07:43:20;9.80;;;5.17;;
4521;SDS011;2273;48.464;11.926;2023-05-29T07:45:51;10.50;;;5.63;;
4521;SDS011;2273;48.464;11.926;2023-05-29T07:48:17;10.97;;;5.40;;
4521;SDS011;2273;48.464;11.926;2023-05-29T07:50:42;9.40;;;4.90;;
4521;SDS011;2273;48.464;11.926;2023-05-29T07:53:08;12.00;;;5.23;;
4521;SDS011;2273;48.464;11.926;2023-05-29T07:55:36;14.33;;;5.37;;
4521;SDS011;2273;48.464;11.926;2023-05-29T07:58:02;11.00;;;5.50;;
4521;SDS011;2273;48.464;11.926;2023-05-29T08:00:28;9.03;;;5.20;;
4521;SDS011;2273;48.464;11.926;2023-05-29T08:02:54;11.80;;;5.87;;
4521;SDS011;2273;48.464;11.926;2023-05-29T08:05:29;11.13;;;5.77;;
4521;SDS011;2273;48.464;11.926;2023-05-29T08:07:54;8.47;;;4.90;;
4521;SDS011;2273;48.464;11.926;2023-05-29T08:10:20;12.40;;;5.67;;
4521;SDS011;2273;48.464;11.926;2023-05-29T08:12:45;8.47;;;5.50;;
4521;SDS011;2273;48.464;11.926;2023-05-29T08:15:11;14.10;;;5.27;;
4521;SDS011;2273;48.464;11.926;2023-05-29T08:17:37;8.30;;;5.40;;
4521;SDS011;2273;48.464;11.926;2023-05-29T08:20:03;11.90;;;5.43;;
4521;SDS011;2273;48.464;11.926;2023-05-29T08:22:32;11.70;;;5.23;;
4521;SDS011;2273;48.464;11.926;2023-05-29T08:24:59;12.60;;;5.30;;
4521;SDS011;2273;48.464;11.926;2023-05-29T08:27:24;9.60;;;5.30;;
4521;SDS011;2273;48.464;11.926;2023-05-29T08:29:50;12.30;;;5.10;;
4521;SDS011;2273;48.464;11.926;2023-05-29T08:32:15;8.07;;;5.20;;
4521;SDS011;2273;48.464;11.926;2023-05-29T08:34:41;10.47;;;5.10;;
4521;SDS011;2273;48.464;11.926;2023-05-29T08:37:07;11.30;;;5.73;;
4521;SDS011;2273;48.464;11.926;2023-05-29T08:39:32;9.10;;;5.30;;
4521;SDS011;2273;48.464;11.926;2023-05-29T08:42:01;8.43;;;4.87;;
4521;SDS011;2273;48.464;11.926;2023-05-29T08:44:32;8.80;;;5.33;;
4521;SDS011;2273;48.464;11.926;2023-05-29T08:46:58;9.57;;;5.63;;
4521;SDS011;2273;48.464;11.926;2023-05-29T08:49:27;11.87;;;5.20;;
4521;SDS011;2273;48.464;11.926;2023-05-29T08:52:00;9.10;;;5.50;;
4521;SDS011;2273;48.464;11.926;2023-05-29T08:54:29;11.00;;;5.10;;
4521;SDS011;2273;48.464;11.926;2023-05-29T08:56:56;14.10;;;5.10;;
4521;SDS011;2273;48.464;11.926;2023-05-29T08:59:23;12.33;;;5.30;;
4521;SDS011;2273;48.464;11.926;2023-05-29T09:01:50;8.03;;;5.47;;
4521;SDS011;2273;48.464;11.926;2023-05-29T09:04:15;13.60;;;5.80;;
4521;SDS011;2273;48.464;11.926;2023-05-29T09:06:41;8.87;;;5.03;;
4521;SDS011;2273;48.464;11.926;2023-05-29T09:09:07;14.37;;;6.00;;
4521;SDS011;2273;48.464;11.926;2023-05-29T09:11:34;11.10;;;5.27;;
4521;SDS011;2273;48.464;11.926;2023-05-29T09:14:00;9.50;;;5.37;;
4521;SDS011;2273;48.464;11.926;2023-05-29T09:16:27;17.37;;;6.20;;
4521;SDS011;2273;48.464;11.926;2023-05-29T09:18:56;15.10;;;5.40;;
4521;SDS011;2273;48.464;11.926;2023-05-29T09:21:30;9.60;;;5.40;;
4521;SDS011;2273;48.464;11.926;2023-05-29T09:24:04;9.93;;;5.00;;
4521;SDS011;2273;48.464;11.926;2023-05-29T09:26:34;10.70;;;5.13;;
4521;SDS011;2273;48.464;11.926;2023-05-29T09:28:59;10.67;;;5.60;;
4521;SDS011;2273;48.464;11.926;2023-05-29T09:31:25;10.37;;;5.70;;
4521;SDS011;2273;48.464;11.926;2023-05-29T09:33:50;9.67;;;4.60;;
4521;SDS011;2273;48.464;11.926;2023-05-29T09:36:22;8.20;;;4.90;;
4521;SDS011;2273;48.464;11.926;2023-05-29T09:38:48;12.47;;;5.20;;
4521;SDS011;2273;48.464;11.926;2023-05-29T09:41:20;13.53;;;5.70;;
4521;SDS011;2273;48.464;11.926;2023-05-29T09:43:48;15.43;;;5.67;;
4521;SDS011;2273;48.464;11.926;2023-05-29T09:46:15;9.87;;;5.00;;
4521;SDS011;2273;48.464;11.926;2023-05-29T09:48:42;10.90;;;5.40;;
4521;SDS011;2273;48.464;11.926;2023-05-29T09:51:18;19.40;;;5.43;;
4521;SDS011;2273;48.464;11.926;2023-05-29T09:53:45;11.93;;;5.13;;
4521;SDS011;2273;48.464;11.926;2023-05-29T09:56:11;8.40;;;5.03;;
4521;SDS011;2273;48.464;11.926;2023-05-29T09:58:39;6.83;;;4.80;;
4521;SDS011;2273;48.464;11.926;2023-05-29T10:01:11;7.90;;;5.13;;
4521;SDS011;2273;48.464;11.926;2023-05-29T10:03:37;13.23;;;5.53;;
4521;SDS011;2273;48.464;11.926;2023-05-29T10:06:03;8.80;;;5.03;;
4521;SDS011;2273;48.464;11.926;2023-05-29T10:08:30;9.07;;;5.00;;
4521;SDS011;2273;48.464;11.926;2023-05-29T10:11:00;13.57;;;5.50;;
4521;SDS011;2273;48.464;11.926;2023-05-29T10:13:36;9.70;;;5.30;;
4521;SDS011;2273;48.464;11.926;2023-05-29T10:16:04;9.10;;;5.20;;
4521;SDS011;2273;48.464;11.926;2023-05-29T10:18:43;10.10;;;5.30;;
4521;SDS011;2273;48.464;11.926;2023-05-29T10:21:11;10.50;;;5.40;;
4521;SDS011;2273;48.464;11.926;2023-05-29T10:23:37;10.70;;;4.73;;
4521;SDS011;2273;48.464;11.926;2023-05-29T10:26:09;8.30;;;5.07;;
4521;SDS011;2273;48.464;11.926;2023-05-29T10:28:37;13.30;;;4.87;;
4521;SDS011;2273;48.464;11.926;2023-05-29T10:31:08;11.20;;;5.00;;
4521;SDS011;2273;48.464;11.926;2023-05-29T10:38:40;13.03;;;5.20;;
4521;SDS011;2273;48.464;11.926;2023-05-29T10:44:00;7.90;;;4.67;;
4521;SDS011;2273;48.464;11.926;2023-05-29T10:47:00;14.20;;;5.10;;
4521;SDS011;2273;48.464;11.926;2023-05-29T10:49:18;8.00;;;4.77;;
4521;SDS011;2273;48.464;11.926;2023-05-29T10:51:44;9.10;;;4.20;;
4521;SDS011;2273;48.464;11.926;2023-05-29T10:54:09;8.20;;;4.63;;
4521;SDS011;2273;48.464;11.926;2023-05-29T10:56:36;12.53;;;4.90;;
4521;SDS011;2273;48.464;11.926;2023-05-29T10:59:01;6.73;;;4.30;;
4521;SDS011;2273;48.464;11.926;2023-05-29T11:01:28;9.67;;;4.40;;
4521;SDS011;2273;48.464;11.926;2023-05-29T11:06:41;9.97;;;5.10;;
4521;SDS011;2273;48.464;11.926;2023-05-29T11:09:11;8.43;;;4.80;;
4521;SDS011;2273;48.464;11.926;2023-05-29T11:12:09;8.93;;;4.83;;
4521;SDS011;2273;48.464;11.926;2023-05-29T11:20:05;8.70;;;4.40;;
4521;SDS011;2273;48.464;11.926;2023-05-29T11:25:05;7.23;;;4.40;;
4521;SDS011;2273;48.464;11.926;2023-05-29T11:27:32;6.60;;;4.37;;
4521;SDS011;2273;48.464;11.926;2023-05-29T11:29:57;8.60;;;4.60;;
4521;SDS011;2273;48.464;11.926;2023-05-29T11:32:23;7.53;;;4.30;;
4521;SDS011;2273;48.464;11.926;2023-05-29T11:34:52;9.00;;;4.30;;
4521;SDS011;2273;48.464;11.926;2023-05-29T11:37:21;8.67;;;4.07;;
4521;SDS011;2273;48.464;11.926;2023-05-29T11:39:47;11.80;;;6.20;;
4521;SDS011;2273;48.464;11.926;2023-05-29T11:42:13;7.60;;;4.40;;
4521;SDS011;2273;48.464;11.926;2023-05-29T11:44:38;7.07;;;4.37;;
4521;SDS011;2273;48.464;11.926;2023-05-29T11:47:05;8.90;;;4.43;;
4521;SDS011;2273;48.464;11.926;2023-05-29T11:49:33;8.23;;;4.50;;
4521;SDS011;2273;48.464;11.926;2023-05-29T11:52:12;8.13;;;4.27;;
4521;SDS011;2273;48.464;11.926;2023-05-29T11:54:39;7.53;;;4.53;;
4521;SDS011;2273;48.464;11.926;2023-05-29T11:57:06;6.33;;;4.43;;
4521;SDS011;2273;48.464;11.926;2023-05-29T11:59:32;5.33;;;3.87;;
4521;SDS011;2273;48.464;11.926;2023-05-29T12:01:58;7.37;;;4.40;;
4521;SDS011;2273;48.464;11.926;2023-05-29T12:04:24;9.20;;;4.93;;
4521;SDS011;2273;48.464;11.926;2023-05-29T12:06:50;8.23;;;4.13;;
4521;SDS011;2273;48.464;11.926;2023-05-29T12:09:25;6.63;;;4.50;;
4521;SDS011;2273;48.464;11.926;2023-05-29T12:11:54;8.13;;;4.70;;
4521;SDS011;2273;48.464;11.926;2023-05-29T12:14:26;6.30;;;4.63;;
4521;SDS011;2273;48.464;11.926;2023-05-29T12:16:51;8.03;;;4.53;;
4521;SDS011;2273;48.464;11.926;2023-05-29T12:19:17;8.13;;;4.30;;
4521;SDS011;2273;48.464;11.926;2023-05-29T12:21:42;6.70;;;4.30;;
4521;SDS011;2273;48.464;11.926;2023-05-29T12:24:09;6.50;;;4.60;;
4521;SDS011;2273;48.464;11.926;2023-05-29T12:26:35;11.50;;;4.40;;
4521;SDS011;2273;48.464;11.926;2023-05-29T12:29:02;6.50;;;4.00;;
4521;SDS011;2273;48.464;11.926;2023-05-29T12:31:29;5.30;;;3.90;;
4521;SDS011;2273;48.464;11.926;2023-05-29T12:34:06;5.20;;;3.70;;
4521;SDS011;2273;48.464;11.926;2023-05-29T12:36:33;5.90;;;4.33;;
4521;SDS011;2273;48.464;11.926;2023-05-29T12:38:58;8.57;;;4.47;;
4521;SDS011;2273;48.464;11.926;2023-05-29T12:41:24;5.87;;;3.67;;
4521;SDS011;2273;48.464;11.926;2023-05-29T12:43:58;6.90;;;4.10;;
4521;SDS011;2273;48.464;11.926;2023-05-29T12:46:27;6.37;;;4.17;;
4521;SDS011;2273;48.464;11.926;2023-05-29T12:48:55;6.07;;;4.17;;
4521;SDS011;2273;48.464;11.926;2023-05-29T12:51:24;6.10;;;4.30;;
4521;SDS011;2273;48.464;11.926;2023-05-29T12:53:51;6.33;;;4.23;;
4521;SDS011;2273;48.464;11.926;2023-05-29T12:56:19;6.50;;;4.20;;
4521;SDS011;2273;48.464;11.926;2023-05-29T12:58:49;8.40;;;3.90;;
4521;SDS011;2273;48.464;11.926;2023-05-29T13:01:16;7.83;;;4.60;;
4521;SDS011;2273;48.464;11.926;2023-05-29T13:03:41;6.20;;;3.40;;
4521;SDS011;2273;48.464;11.926;2023-05-29T13:06:07;7.77;;;4.00;;
4521;SDS011;2273;48.464;11.926;2023-05-29T13:08:32;7.67;;;3.90;;
4521;SDS011;2273;48.464;11.926;2023-05-29T13:10:58;5.40;;;3.63;;
4521;SDS011;2273;48.464;11.926;2023-05-29T13:13:23;6.57;;;3.80;;
4521;SDS011;2273;48.464;11.926;2023-05-29T13:15:48;7.13;;;3.67;;
4521;SDS011;2273;48.464;11.926;2023-05-29T13:18:14;7.60;;;3.73;;
4521;SDS011;2273;48.464;11.926;2023-05-29T13:20:39;6.43;;;4.33;;
4521;SDS011;2273;48.464;11.926;2023-05-29T13:23:05;5.83;;;3.80;;
4521;SDS011;2273;48.464;11.926;2023-05-29T13:25:30;7.03;;;3.93;;
4521;SDS011;2273;48.464;11.926;2023-05-29T13:27:56;7.00;;;4.00;;
4521;SDS011;2273;48.464;11.926;2023-05-29T13:30:21;11.10;;;3.70;;
4521;SDS011;2273;48.464;11.926;2023-05-29T13:32:47;7.10;;;3.40;;
4521;SDS011;2273;48.464;11.926;2023-05-29T13:35:13;5.87;;;3.60;;
4521;SDS011;2273;48.464;11.926;2023-05-29T13:37:38;5.43;;;3.53;;
4521;SDS011;2273;48.464;11.926;2023-05-29T13:40:04;5.00;;;3.23;;
4521;SDS011;2273;48.464;11.926;2023-05-29T13:42:31;5.60;;;3.33;;
4521;SDS011;2273;48.464;11.926;2023-05-29T13:44:56;6.50;;;3.10;;
4521;SDS011;2273;48.464;11.926;2023-05-29T13:47:22;6.50;;;3.93;;
4521;SDS011;2273;48.464;11.926;2023-05-29T13:49:47;7.13;;;4.07;;
4521;SDS011;2273;48.464;11.926;2023-05-29T13:52:13;5.00;;;3.17;;
4521;SDS011;2273;48.464;11.926;2023-05-29T13:54:38;5.50;;;3.80;;
4521;SDS011;2273;48.464;11.926;2023-05-29T13:57:04;6.67;;;3.33;;
4521;SDS011;2273;48.464;11.926;2023-05-29T13:59:31;4.50;;;3.20;;
4521;SDS011;2273;48.464;11.926;2023-05-29T14:02:00;3.97;;;3.00;;
4521;SDS011;2273;48.464;11.926;2023-05-29T14:04:25;5.60;;;2.90;;
4521;SDS011;2273;48.464;11.926;2023-05-29T14:06:52;11.60;;;3.40;;
4521;SDS011;2273;48.464;11.926;2023-05-29T14:09:17;6.63;;;3.53;;
4521;SDS011;2273;48.464;11.926;2023-05-29T14:11:51;4.20;;;2.93;;
4521;SDS011;2273;48.464;11.926;2023-05-29T14:14:18;5.73;;;3.20;;
4521;SDS011;2273;48.464;11.926;2023-05-29T14:16:43;11.30;;;3.27;;
4521;SDS011;2273;48.464;11.926;2023-05-29T14:19:08;5.40;;;3.07;;
4521;SDS011;2273;48.464;11.926;2023-05-29T14:21:34;4.00;;;2.93;;
4521;SDS011;2273;48.464;11.926;2023-05-29T14:24:01;10.10;;;4.07;;
4521;SDS011;2273;48.464;11.926;2023-05-29T14:26:26;5.13;;;3.13;;
4521;SDS011;2273;48.464;11.926;2023-05-29T14:28:51;5.83;;;3.17;;
4521;SDS011;2273;48.464;11.926;2023-05-29T14:31:17;4.43;;;3.07;;
4521;SDS011;2273;48.464;11.926;2023-05-29T14:33:42;5.53;;;2.93;;
4521;SDS011;2273;48.464;11.926;2023-05-29T14:36:08;4.70;;;3.50;;
4521;SDS011;2273;48.464;11.926;2023-05-29T14:38:33;9.83;;;3.00;;
4521;SDS011;2273;48.464;11.926;2023-05-29T14:40:58;7.30;;;3.20;;
4521;SDS011;2273;48.464;11.926;2023-05-29T14:43:24;8.37;;;3.10;;
4521;SDS011;2273;48.464;11.926;2023-05-29T14:45:49;5.90;;;3.07;;
4521;SDS011;2273;48.464;11.926;2023-05-29T14:48:15;6.33;;;3.47;;
4521;SDS011;2273;48.464;11.926;2023-05-29T14:50:41;4.90;;;3.03;;
4521;SDS011;2273;48.464;11.926;2023-05-29T14:53:07;5.53;;;3.10;;
4521;SDS011;2273;48.464;11.926;2023-05-29T14:55:32;6.63;;;3.70;;
4521;SDS011;2273;48.464;11.926;2023-05-29T14:58:02;5.40;;;3.30;;
4521;SDS011;2273;48.464;11.926;2023-05-29T15:00:29;5.50;;;2.93;;
4521;SDS011;2273;48.464;11.926;2023-05-29T15:02:54;3.57;;;2.83;;
4521;SDS011;2273;48.464;11.926;2023-05-29T15:05:22;4.50;;;3.00;;
4521;SDS011;2273;48.464;11.926;2023-05-29T15:07:47;7.60;;;2.90;;
4521;SDS011;2273;48.464;11.926;2023-05-29T15:10:13;5.97;;;3.60;;
4521;SDS011;2273;48.464;11.926;2023-05-29T15:12:38;5.00;;;2.80;;
4521;SDS011;2273;48.464;11.926;2023-05-29T15:15:04;5.20;;;2.67;;
4521;SDS011;2273;48.464;11.926;2023-05-29T15:17:30;5.00;;;3.27;;
4521;SDS011;2273;48.464;11.926;2023-05-29T15:19:56;5.10;;;2.63;;
4521;SDS011;2273;48.464;11.926;2023-05-29T15:22:21;4.80;;;3.10;;